createdAt,value
2018-12-24T00:01:15.097Z,61.10
2018-12-24T00:03:44.714Z,61.10
2018-12-24T00:06:14.311Z,61.10
2018-12-24T00:08:43.879Z,61.40
2018-12-24T00:11:13.449Z,61.40
2018-12-24T00:13:43.108Z,61.30
2018-12-24T00:16:12.759Z,61.00
2018-12-24T00:18:42.462Z,60.80
2018-12-24T00:21:12.143Z,60.90
2018-12-24T00:23:41.837Z,60.90
2018-12-24T00:26:11.453Z,60.90
2018-12-24T00:28:41.072Z,61.00
2018-12-24T00:31:10.765Z,60.90
2018-12-24T00:33:40.428Z,61.00
2018-12-24T00:36:10.041Z,60.90
2018-12-24T00:38:39.601Z,60.90
2018-12-24T00:41:09.283Z,61.10
2018-12-24T00:43:39.056Z,61.20
2018-12-24T00:46:08.735Z,61.20
2018-12-24T00:48:38.587Z,61.40
2018-12-24T00:51:08.299Z,61.40
2018-12-24T00:53:38.075Z,61.20
2018-12-24T00:56:07.781Z,60.90
2018-12-24T00:58:37.463Z,60.90
2018-12-24T01:01:07.062Z,60.90
2018-12-24T01:03:36.686Z,60.90
2018-12-24T01:06:06.489Z,61.10
2018-12-24T01:08:36.367Z,61.00
2018-12-24T01:11:06.086Z,61.00
2018-12-24T01:13:35.818Z,61.10
2018-12-24T01:16:05.548Z,60.90
2018-12-24T01:18:36.121Z,61.10
2018-12-24T01:21:05.739Z,61.00
2018-12-24T01:23:35.681Z,61.10
2018-12-24T01:26:05.267Z,61.20
2018-12-24T01:28:34.983Z,61.20
2018-12-24T01:31:04.736Z,61.10
2018-12-24T01:33:34.427Z,61.10
2018-12-24T01:36:04.079Z,61.10
2018-12-24T01:38:33.751Z,61.10
2018-12-24T01:41:03.390Z,61.20
2018-12-24T01:43:33.016Z,61.40
2018-12-24T01:46:02.638Z,61.50
2018-12-24T01:48:32.387Z,61.40
2018-12-24T01:51:45.673Z,61.30
2018-12-24T01:54:15.199Z,60.90
2018-12-24T01:56:44.528Z,60.90
2018-12-24T01:59:13.712Z,60.90
2018-12-24T02:01:42.907Z,61.00
2018-12-24T02:04:12.205Z,61.10
2018-12-24T02:06:41.487Z,61.00
2018-12-24T02:09:10.666Z,61.20
2018-12-24T02:11:39.905Z,61.10
2018-12-24T02:14:09.232Z,61.10
2018-12-24T02:16:38.415Z,61.10
2018-12-24T02:19:07.778Z,61.00
2018-12-24T02:21:37.121Z,61.30
2018-12-24T02:24:06.290Z,61.10
2018-12-24T02:26:35.549Z,61.10
2018-12-24T02:29:04.681Z,61.20
2018-12-24T02:31:33.937Z,61.10
2018-12-24T02:34:03.200Z,61.20
2018-12-24T02:36:32.452Z,61.20
2018-12-24T02:39:01.784Z,61.30
2018-12-24T02:41:31.189Z,61.40
2018-12-24T02:44:00.445Z,61.40
2018-12-24T02:46:29.628Z,61.40
2018-12-24T02:48:58.826Z,61.10
2018-12-24T02:51:28.184Z,61.00
2018-12-24T02:53:57.323Z,61.10
2018-12-24T02:56:26.549Z,60.90
2018-12-24T02:58:55.691Z,60.90
2018-12-24T03:01:24.879Z,61.10
2018-12-24T03:03:54.141Z,61.00
2018-12-24T03:06:23.402Z,61.00
2018-12-24T03:08:52.705Z,61.00
2018-12-24T03:11:21.920Z,61.00
2018-12-24T03:13:51.246Z,61.00
2018-12-24T03:16:20.555Z,61.10
2018-12-24T03:18:49.806Z,61.10
2018-12-24T03:21:19.001Z,61.30
2018-12-24T03:23:48.129Z,61.40
2018-12-24T03:26:17.382Z,61.30
2018-12-24T03:28:46.649Z,61.10
2018-12-24T03:31:15.940Z,60.90
2018-12-24T03:33:45.210Z,60.90
2018-12-24T03:36:14.507Z,60.90
2018-12-24T03:38:43.668Z,60.90
2018-12-24T03:41:12.842Z,61.00
2018-12-24T03:43:42.046Z,60.90
2018-12-24T03:46:11.262Z,60.90
2018-12-24T03:48:40.408Z,61.00
2018-12-24T03:51:09.556Z,61.00
2018-12-24T03:53:38.806Z,61.00
2018-12-24T03:56:08.005Z,61.00
2018-12-24T03:58:37.323Z,61.10
2018-12-24T04:01:06.459Z,61.30
2018-12-24T04:03:35.619Z,61.40
2018-12-24T04:06:04.810Z,61.20
2018-12-24T04:08:34.076Z,61.00
2018-12-24T04:11:03.355Z,60.90
2018-12-24T04:13:32.558Z,60.90
2018-12-24T04:16:01.789Z,60.90
2018-12-24T04:18:30.997Z,60.80
2018-12-24T04:21:00.143Z,61.10
2018-12-24T04:23:29.313Z,60.90
2018-12-24T04:25:58.582Z,60.90
2018-12-24T04:28:27.763Z,61.00
2018-12-24T04:30:56.983Z,61.30
2018-12-24T04:33:26.163Z,61.00
2018-12-24T04:35:55.383Z,61.00
2018-12-24T04:38:24.712Z,61.10
2018-12-24T04:40:53.892Z,61.00
2018-12-24T04:43:31.869Z,61.10
2018-12-24T04:45:53.944Z,61.00
2018-12-24T04:48:23.088Z,61.10
2018-12-24T04:50:52.289Z,61.10
2018-12-24T04:53:21.512Z,61.10
2018-12-24T04:55:50.700Z,61.10
2018-12-24T04:58:19.898Z,61.10
2018-12-24T05:00:49.034Z,61.20
2018-12-24T05:03:18.347Z,61.20
2018-12-24T05:05:47.506Z,61.00
2018-12-24T05:08:16.730Z,60.90
2018-12-24T05:10:45.856Z,60.70
2018-12-24T05:13:14.988Z,60.60
2018-12-24T05:15:44.138Z,60.70
2018-12-24T05:18:13.281Z,60.80
2018-12-24T05:20:42.554Z,60.70
2018-12-24T05:23:11.661Z,60.70
2018-12-24T05:25:40.766Z,60.70
2018-12-24T05:28:09.902Z,60.80
2018-12-24T05:30:39.042Z,60.80
2018-12-24T05:33:08.210Z,60.80
2018-12-24T05:35:37.357Z,60.80
2018-12-24T05:38:06.520Z,60.90
2018-12-24T05:40:35.614Z,60.90
2018-12-24T05:43:04.780Z,60.90
2018-12-24T05:45:33.937Z,60.90
2018-12-24T05:48:03.158Z,61.50
2018-12-24T05:50:32.420Z,60.70
2018-12-24T05:53:01.611Z,60.80
2018-12-24T05:55:30.817Z,60.90
2018-12-24T05:57:59.948Z,61.00
2018-12-24T06:00:29.119Z,61.00
2018-12-24T06:02:58.242Z,61.00
2018-12-24T06:05:27.403Z,60.80
2018-12-24T06:07:56.638Z,60.60
2018-12-24T06:10:25.683Z,60.50
2018-12-24T06:12:54.779Z,60.60
2018-12-24T06:15:23.874Z,60.50
2018-12-24T06:17:53.081Z,60.70
2018-12-24T06:20:22.205Z,60.50
2018-12-24T06:22:51.364Z,60.70
2018-12-24T06:25:20.515Z,60.60
2018-12-24T06:27:49.761Z,60.70
2018-12-24T06:30:18.923Z,60.70
2018-12-24T06:32:48.122Z,60.80
2018-12-24T06:35:17.346Z,60.80
2018-12-24T06:37:46.605Z,60.90
2018-12-24T06:40:15.751Z,61.00
2018-12-24T06:42:44.923Z,60.70
2018-12-24T06:45:14.137Z,60.70
2018-12-24T06:47:43.300Z,60.60
2018-12-24T06:50:12.494Z,60.60
2018-12-24T06:52:41.761Z,60.60
2018-12-24T06:55:10.848Z,60.70
2018-12-24T06:57:40.060Z,60.70
2018-12-24T07:00:09.257Z,60.70
2018-12-24T07:02:38.381Z,60.70
2018-12-24T07:05:07.567Z,60.70
2018-12-24T07:07:36.819Z,60.70
2018-12-24T07:10:06.169Z,60.70
2018-12-24T07:12:35.339Z,60.70
2018-12-24T07:15:04.561Z,60.80
2018-12-24T07:17:33.768Z,60.90
2018-12-24T07:20:02.913Z,60.80
2018-12-24T07:22:32.153Z,60.60
2018-12-24T07:25:01.286Z,60.40
2018-12-24T07:27:30.462Z,60.30
2018-12-24T07:29:59.761Z,60.40
2018-12-24T07:32:28.954Z,60.40
2018-12-24T07:34:58.135Z,60.50
2018-12-24T07:37:27.653Z,60.40
2018-12-24T07:39:56.908Z,60.60
2018-12-24T07:42:26.172Z,60.50
2018-12-24T07:44:55.360Z,60.50
2018-12-24T07:47:24.545Z,60.50
2018-12-24T07:49:53.767Z,60.50
2018-12-24T07:52:23.032Z,60.60
2018-12-24T07:54:52.250Z,60.80
2018-12-24T07:57:21.545Z,60.80
2018-12-24T07:59:50.857Z,60.60
2018-12-24T08:02:20.005Z,60.40
2018-12-24T08:04:49.273Z,60.40
2018-12-24T08:07:18.437Z,60.40
2018-12-24T08:09:47.619Z,60.40
2018-12-24T08:12:16.848Z,60.50
2018-12-24T08:14:46.089Z,60.50
2018-12-24T08:17:17.649Z,60.50
2018-12-24T08:19:50.055Z,60.60
2018-12-24T08:22:19.289Z,60.60
2018-12-24T08:24:48.475Z,60.60
2018-12-24T08:27:17.837Z,60.70
2018-12-24T08:29:47.099Z,60.60
2018-12-24T08:32:16.245Z,60.80
2018-12-24T08:34:45.446Z,60.80
2018-12-24T08:37:14.593Z,60.80
2018-12-24T08:39:43.741Z,60.50
2018-12-24T08:42:13.052Z,60.30
2018-12-24T08:44:42.362Z,60.30
2018-12-24T08:47:13.339Z,60.40
2018-12-24T08:49:42.547Z,60.40
2018-12-24T08:52:11.831Z,60.40
2018-12-24T08:54:41.077Z,60.40
2018-12-24T08:57:10.321Z,60.40
2018-12-24T08:59:39.605Z,60.50
2018-12-24T09:02:08.789Z,60.40
2018-12-24T09:04:38.051Z,60.50
2018-12-24T09:07:07.362Z,60.50
2018-12-24T09:09:36.703Z,60.50
2018-12-24T09:12:05.973Z,60.70
2018-12-24T09:14:35.124Z,60.80
2018-12-24T09:17:04.248Z,60.70
2018-12-24T09:19:33.406Z,60.40
2018-12-24T09:22:02.715Z,60.40
2018-12-24T09:24:31.854Z,60.50
2018-12-24T09:27:01.136Z,60.40
2018-12-24T09:29:30.460Z,60.50
2018-12-24T09:31:59.652Z,60.50
2018-12-24T09:34:28.888Z,60.50
2018-12-24T09:36:58.056Z,60.50
2018-12-24T09:39:27.354Z,60.50
2018-12-24T09:41:56.662Z,60.50
2018-12-24T09:44:25.857Z,60.50
2018-12-24T09:46:55.135Z,60.50
2018-12-24T09:49:24.379Z,60.70
2018-12-24T09:51:53.597Z,60.70
2018-12-24T09:54:23.004Z,60.70
2018-12-24T09:56:52.223Z,60.40
2018-12-24T09:59:21.477Z,60.30
2018-12-24T10:01:50.669Z,60.30
2018-12-24T10:04:28.532Z,60.30
2018-12-24T10:07:04.327Z,60.30
2018-12-24T10:09:33.517Z,60.30
2018-12-24T10:12:02.690Z,60.40
2018-12-24T10:14:31.833Z,60.50
2018-12-24T10:17:01.065Z,60.50
2018-12-24T10:19:30.386Z,60.60
2018-12-24T10:21:59.570Z,60.50
2018-12-24T10:24:28.807Z,60.50
2018-12-24T10:26:57.978Z,60.50
2018-12-24T10:29:27.129Z,60.50
2018-12-24T10:31:56.320Z,60.60
2018-12-24T10:34:25.518Z,60.60
2018-12-24T10:36:54.868Z,60.50
2018-12-24T10:39:25.237Z,60.60
2018-12-24T10:41:54.436Z,60.50
2018-12-24T10:44:23.654Z,60.50
2018-12-24T10:46:52.810Z,60.60
2018-12-24T10:49:21.923Z,60.60
2018-12-24T10:51:51.176Z,60.60
2018-12-24T10:54:20.372Z,60.30
2018-12-24T10:56:49.519Z,60.10
2018-12-24T10:59:18.620Z,60.10
2018-12-24T11:01:47.815Z,60.20
2018-12-24T11:04:16.963Z,60.20
2018-12-24T11:06:46.186Z,60.20
2018-12-24T11:09:15.459Z,60.30
2018-12-24T11:11:44.669Z,60.30
2018-12-24T11:14:14.032Z,60.40
2018-12-24T11:16:43.321Z,60.40
2018-12-24T11:19:12.572Z,60.30
2018-12-24T11:21:41.771Z,60.40
2018-12-24T11:24:10.957Z,60.40
2018-12-24T11:26:40.219Z,60.40
2018-12-24T11:29:09.528Z,60.40
2018-12-24T11:31:38.760Z,60.40
2018-12-24T11:34:07.915Z,60.40
2018-12-24T11:36:37.389Z,60.40
2018-12-24T11:39:07.212Z,60.40
2018-12-24T11:41:36.290Z,60.50
2018-12-24T11:44:05.498Z,60.60
2018-12-24T11:53:27.836Z,60.10
2018-12-24T11:59:25.476Z,60.30
2018-12-24T12:05:41.759Z,60.10
2018-12-24T12:17:50.295Z,60.20
2018-12-24T12:38:15.186Z,60.20
2018-12-24T12:50:49.192Z,60.30
2018-12-24T12:53:18.149Z,60.30
2018-12-24T12:55:47.000Z,60.30
2018-12-24T12:58:15.937Z,60.30
2018-12-24T13:00:44.853Z,60.40
2018-12-24T13:03:13.666Z,60.50
2018-12-24T13:05:42.621Z,60.40
2018-12-24T13:08:11.840Z,60.20
2018-12-24T13:10:40.818Z,60.10
2018-12-24T13:13:09.693Z,60.10
2018-12-24T13:15:38.550Z,60.10
2018-12-24T13:18:07.499Z,60.00
2018-12-24T13:20:36.341Z,60.10
2018-12-24T13:23:05.263Z,60.10
2018-12-24T13:25:34.109Z,60.20
2018-12-24T13:28:02.988Z,60.20
2018-12-24T13:30:31.789Z,60.20
2018-12-24T13:33:00.578Z,60.20
2018-12-24T13:35:29.316Z,60.30
2018-12-24T13:37:58.071Z,60.20
2018-12-24T13:40:26.937Z,60.40
2018-12-24T13:42:55.828Z,60.30
2018-12-24T13:45:24.619Z,60.10
2018-12-24T13:47:53.389Z,60.10
2018-12-24T13:50:22.242Z,60.10
2018-12-24T13:52:51.006Z,60.20
2018-12-24T13:55:19.893Z,60.10
2018-12-24T13:57:48.691Z,60.20
2018-12-24T14:00:17.561Z,60.20
2018-12-24T14:02:46.373Z,60.30
2018-12-24T14:05:15.204Z,60.30
2018-12-24T14:07:44.077Z,60.30
2018-12-24T14:10:13.074Z,60.30
2018-12-24T14:12:41.921Z,60.30
2018-12-24T14:15:10.731Z,60.30
2018-12-24T14:17:39.557Z,60.40
2018-12-24T14:20:08.523Z,60.40
2018-12-24T14:22:37.307Z,60.20
2018-12-24T14:25:06.263Z,60.10
2018-12-24T14:27:35.083Z,60.10
2018-12-24T14:30:04.473Z,60.10
2018-12-24T14:32:33.400Z,60.10
2018-12-24T14:35:02.277Z,60.10
2018-12-24T14:37:31.177Z,60.10
2018-12-24T14:40:00.267Z,60.10
2018-12-24T14:42:29.123Z,60.20
2018-12-24T14:44:58.043Z,60.70
2018-12-24T14:47:26.903Z,60.90
2018-12-24T14:49:55.731Z,60.50
2018-12-24T14:52:24.609Z,60.40
2018-12-24T14:54:53.481Z,60.50
2018-12-24T14:57:22.371Z,60.60
2018-12-24T14:59:51.150Z,60.50
2018-12-24T15:02:20.059Z,60.40
2018-12-24T15:04:50.062Z,60.30
2018-12-24T15:07:18.951Z,60.30
2018-12-24T15:09:47.751Z,60.30
2018-12-24T15:12:16.671Z,60.40
2018-12-24T15:14:45.561Z,60.30
2018-12-24T15:17:14.609Z,60.30
2018-12-24T15:19:43.390Z,60.30
2018-12-24T15:22:12.139Z,60.30
2018-12-24T15:24:41.166Z,60.20
2018-12-24T15:27:09.927Z,60.20
2018-12-24T15:29:38.783Z,60.30
2018-12-24T15:32:07.571Z,60.30
2018-12-24T15:34:36.353Z,60.00
2018-12-24T15:37:05.211Z,60.00
2018-12-24T15:39:33.975Z,59.90
2018-12-24T15:42:02.764Z,59.80
2018-12-24T15:44:31.533Z,59.80
2018-12-24T15:47:00.307Z,59.70
2018-12-24T15:49:29.075Z,59.70
2018-12-24T15:51:57.895Z,59.70
2018-12-24T15:54:26.645Z,59.80
2018-12-24T15:56:55.443Z,59.70
2018-12-24T15:59:24.277Z,59.60
2018-12-24T16:01:53.085Z,59.40
2018-12-24T16:04:21.837Z,59.40
2018-12-24T16:06:50.593Z,59.50
2018-12-24T16:09:19.355Z,59.40
2018-12-24T16:11:48.090Z,59.40
2018-12-24T16:14:16.859Z,59.40
2018-12-24T16:16:50.952Z,59.50
2018-12-24T16:19:16.182Z,59.50
2018-12-24T16:21:45.006Z,59.50
2018-12-24T16:24:13.771Z,59.60
2018-12-24T16:26:42.531Z,59.60
2018-12-24T16:29:11.295Z,59.60
2018-12-24T16:31:40.096Z,59.70
2018-12-24T16:34:08.864Z,59.70
2018-12-24T16:36:37.660Z,59.60
2018-12-24T16:39:07.157Z,59.40
2018-12-24T16:41:35.912Z,59.40
2018-12-24T16:44:04.685Z,59.60
2018-12-24T16:46:33.443Z,59.50
2018-12-24T16:49:02.239Z,59.40
2018-12-24T16:51:31.047Z,59.40
2018-12-24T16:53:59.800Z,59.50
2018-12-24T16:56:28.697Z,59.60
2018-12-24T16:58:57.455Z,59.60
2018-12-24T17:01:26.251Z,59.60
2018-12-24T17:03:55.111Z,59.60
2018-12-24T17:06:23.887Z,59.60
2018-12-24T17:08:52.631Z,59.60
2018-12-24T17:11:21.392Z,59.70
2018-12-24T17:13:50.173Z,59.70
2018-12-24T17:16:18.939Z,59.50
2018-12-24T17:18:47.703Z,59.40
2018-12-24T17:21:16.507Z,59.50
2018-12-24T17:23:45.275Z,59.60
2018-12-24T17:26:14.040Z,59.50
2018-12-24T17:28:42.955Z,59.60
2018-12-24T17:31:11.727Z,59.60
2018-12-24T17:33:40.485Z,59.70
2018-12-24T17:36:09.255Z,59.60
2018-12-24T17:38:38.009Z,59.60
2018-12-24T17:41:06.866Z,59.60
2018-12-24T17:43:35.639Z,59.70
2018-12-24T17:46:04.403Z,59.60
2018-12-24T17:48:33.176Z,59.60
2018-12-24T17:51:01.953Z,59.60
2018-12-24T17:53:30.757Z,59.70
2018-12-24T17:55:59.841Z,59.70
2018-12-24T17:58:28.663Z,59.70
2018-12-24T18:00:57.642Z,59.60
2018-12-24T18:03:26.474Z,59.60
2018-12-24T18:05:55.255Z,59.70
2018-12-24T18:08:24.010Z,59.70
2018-12-24T18:10:52.798Z,59.70
2018-12-24T18:13:21.544Z,59.70
2018-12-24T18:15:50.306Z,59.40
2018-12-24T18:18:19.155Z,59.40
2018-12-24T18:20:47.985Z,59.40
2018-12-24T18:23:16.742Z,59.50
2018-12-24T18:25:45.593Z,59.40
2018-12-24T18:28:14.353Z,59.50
2018-12-24T18:30:43.123Z,59.60
2018-12-24T18:33:11.867Z,59.60
2018-12-24T18:35:40.628Z,59.60
2018-12-24T18:38:09.374Z,59.60
2018-12-24T18:40:38.150Z,59.60
2018-12-24T18:43:06.891Z,59.60
2018-12-24T18:45:35.653Z,59.60
2018-12-24T18:48:04.421Z,59.70
2018-12-24T18:50:33.183Z,59.70
2018-12-24T18:53:01.967Z,59.60
2018-12-24T18:55:30.733Z,59.40
2018-12-24T18:57:59.610Z,59.40
2018-12-24T19:00:28.362Z,59.50
2018-12-24T19:02:57.130Z,59.40
2018-12-24T19:05:25.891Z,59.30
2018-12-24T19:07:54.634Z,59.40
2018-12-24T19:10:23.421Z,59.50
2018-12-24T19:12:52.225Z,59.50
2018-12-24T19:15:21.018Z,59.60
2018-12-24T19:17:49.773Z,59.60
2018-12-24T19:20:18.547Z,59.60
2018-12-24T19:22:47.305Z,59.70
2018-12-24T19:25:16.072Z,59.70
2018-12-24T19:27:44.908Z,59.60
2018-12-24T19:30:13.739Z,59.70
2018-12-24T19:32:42.503Z,59.70
2018-12-24T19:35:11.250Z,59.60
2018-12-24T19:37:40.023Z,59.60
2018-12-24T19:40:08.868Z,59.60
2018-12-24T19:42:37.623Z,59.60
2018-12-24T19:45:06.390Z,59.70
2018-12-24T19:47:35.152Z,59.70
2018-12-24T19:50:03.942Z,59.60
2018-12-24T19:52:32.700Z,59.40
2018-12-24T19:55:01.506Z,59.30
2018-12-24T19:57:30.255Z,59.30
2018-12-24T19:59:59.037Z,59.30
2018-12-24T20:02:27.793Z,59.90
2018-12-24T20:04:56.566Z,59.30
2018-12-24T20:07:25.404Z,59.30
2018-12-24T20:09:54.243Z,59.30
2018-12-24T20:12:23.029Z,59.30
2018-12-24T20:14:51.806Z,59.30
2018-12-24T20:17:20.636Z,59.40
2018-12-24T20:19:49.431Z,59.40
2018-12-24T20:22:18.351Z,59.30
2018-12-24T20:24:47.154Z,59.50
2018-12-24T20:27:15.908Z,59.50
2018-12-24T20:29:44.693Z,59.30
2018-12-24T20:32:13.453Z,59.30
2018-12-24T20:34:42.194Z,59.30
2018-12-24T20:37:11.048Z,59.30
2018-12-24T20:39:39.847Z,59.30
2018-12-24T20:42:08.702Z,59.30
2018-12-24T20:44:37.475Z,59.30
2018-12-24T20:47:06.277Z,59.30
2018-12-24T20:49:35.050Z,59.20
2018-12-24T20:52:03.905Z,59.20
2018-12-24T20:54:32.685Z,59.20
2018-12-24T20:57:01.538Z,59.30
2018-12-24T20:59:30.309Z,59.30
2018-12-24T21:01:59.153Z,59.40
2018-12-24T21:04:27.924Z,59.50
2018-12-24T21:06:56.837Z,59.40
2018-12-24T21:09:25.613Z,59.20
2018-12-24T21:11:54.461Z,59.20
2018-12-24T21:14:23.303Z,59.30
2018-12-24T21:16:52.110Z,59.30
2018-12-24T21:19:20.884Z,59.30
2018-12-24T21:21:49.742Z,59.40
2018-12-24T21:24:18.597Z,59.40
2018-12-24T21:26:47.357Z,59.40
2018-12-24T21:29:16.136Z,59.40
2018-12-24T21:31:44.874Z,59.40
2018-12-24T21:34:13.655Z,59.50
2018-12-24T21:36:42.442Z,59.50
2018-12-24T21:39:11.327Z,59.50
2018-12-24T21:41:40.179Z,59.70
2018-12-24T21:44:09.071Z,59.80
2018-12-24T21:46:37.956Z,59.70
2018-12-24T21:49:06.801Z,59.50
2018-12-24T21:51:35.672Z,59.30
2018-12-24T21:54:04.468Z,59.30
2018-12-24T21:56:33.330Z,59.30
2018-12-24T21:59:02.275Z,59.40
2018-12-24T22:01:31.367Z,59.50
2018-12-24T22:04:00.222Z,59.60
2018-12-24T22:06:29.003Z,59.50
2018-12-24T22:08:57.873Z,59.50
2018-12-24T22:11:26.689Z,59.50
2018-12-24T22:13:55.675Z,59.50
2018-12-24T22:16:24.569Z,59.50
2018-12-24T22:18:53.441Z,59.50
2018-12-24T22:21:22.475Z,59.70
2018-12-24T22:23:51.532Z,59.60
2018-12-24T22:26:20.354Z,59.40
2018-12-24T22:28:49.244Z,59.30
2018-12-24T22:31:18.136Z,59.30
2018-12-24T22:33:47.028Z,59.30
2018-12-24T22:36:16.086Z,59.30
2018-12-24T22:38:44.876Z,59.40
2018-12-24T22:41:13.756Z,59.40
2018-12-24T22:43:43.232Z,59.40
2018-12-24T22:46:12.291Z,59.40
2018-12-24T22:48:41.417Z,59.40
2018-12-24T22:51:10.246Z,59.40
2018-12-24T22:53:39.248Z,59.40
2018-12-24T22:56:08.028Z,59.40
2018-12-24T22:58:36.841Z,59.40
2018-12-24T23:01:06.065Z,59.60
2018-12-24T23:03:35.361Z,59.60
2018-12-24T23:06:04.381Z,59.50
2018-12-24T23:08:33.272Z,59.30
2018-12-24T23:11:02.074Z,59.20
2018-12-24T23:13:30.854Z,59.20
2018-12-24T23:15:59.722Z,59.20
2018-12-24T23:18:28.572Z,59.20
2018-12-24T23:20:57.464Z,59.20
2018-12-24T23:23:26.309Z,59.30
2018-12-24T23:25:55.184Z,59.30
2018-12-24T23:28:24.008Z,59.30
2018-12-24T23:30:52.858Z,59.30
2018-12-24T23:33:21.713Z,59.20
2018-12-24T23:35:50.492Z,59.20
2018-12-24T23:38:19.266Z,59.20
2018-12-24T23:40:48.145Z,59.30
2018-12-24T23:43:20.012Z,60.10
2018-12-24T23:45:48.794Z,59.30
2018-12-24T23:48:17.634Z,59.20
2018-12-24T23:50:46.534Z,59.10
2018-12-24T23:53:15.329Z,59.00
2018-12-24T23:55:44.242Z,59.00
2018-12-24T23:58:13.246Z,59.00
